Time;durP1;ratioP1;P1;durP2;ratioP2;P2;SDS_P1;SDS_P2;PMS_P1;PMS_P2;Temp;Humidity;BMP_temperature;BMP_pressure;BME280_temperature;BME280_humidity;BME280_pressure;Samples;Min_cycle;Max_cycle;Signal;HPM_P1;HPM_P2
2023/04/05 00:05:53;;;;;;;19.40;11.90;;;;;;;-4.12;75.81;100077.54;436827;1251;139769;-66
2023/04/05 00:16:00;;;;;;;27.90;19.00;;;;;;;-4.30;76.97;100069.09;436423;1251;139845;-67
2023/04/05 00:26:06;;;;;;;28.40;16.30;;;;;;;-4.42;77.62;100056.73;436716;1251;140718;-66
2023/04/05 00:36:13;;;;;;;30.40;18.30;;;;;;;-4.71;77.79;100047.34;437398;1251;140360;-66
2023/04/05 00:46:19;;;;;;;30.00;17.30;;;;;;;-4.91;78.43;100035.27;436892;1253;141353;-65
2023/04/05 00:56:27;;;;;;;31.10;18.40;;;;;;;-5.07;79.05;100019.96;436440;1251;141346;-67
2023/04/05 01:06:59;;;;;;;24.70;16.50;;;;;;;-5.23;79.68;100015.93;437018;1251;140395;-65
2023/04/05 01:17:08;;;;;;;29.00;18.30;;;;;;;-5.42;80.28;100011.85;436583;1251;140633;-66
2023/04/05 01:27:19;;;;;;;37.10;22.40;;;;;;;-5.55;80.72;100006.64;436876;1253;139891;-65
2023/04/05 01:37:30;;;;;;;31.20;21.10;;;;;;;-5.72;81.18;99997.44;436769;1251;140365;-65
2023/04/05 01:47:36;;;;;;;32.30;21.40;;;;;;;-5.89;81.40;99989.78;436351;1250;139967;-65
2023/04/05 01:57:42;;;;;;;34.60;23.90;;;;;;;-6.04;82.04;99986.77;436328;1253;140222;-65
2023/04/05 02:07:48;;;;;;;33.90;22.90;;;;;;;-6.20;82.17;99984.57;436289;1253;139804;-65
2023/04/05 02:17:54;;;;;;;38.00;24.30;;;;;;;-6.36;82.41;99982.17;436457;1250;139611;-65
2023/04/05 02:28:00;;;;;;;44.30;30.10;;;;;;;-6.54;82.46;99982.65;436306;1251;139971;-66
2023/04/05 02:38:06;;;;;;;52.40;31.40;;;;;;;-6.62;83.44;99985.61;436949;1251;139810;-70
2023/04/05 02:48:12;;;;;;;50.00;33.20;;;;;;;-6.67;84.10;99982.83;436970;1253;140791;-67
2023/04/05 02:58:17;;;;;;;54.50;34.60;;;;;;;-6.71;84.64;99978.36;436622;1253;139894;-67
2023/04/05 03:08:23;;;;;;;43.60;32.30;;;;;;;-6.73;85.65;99980.71;436465;1253;152528;-66
2023/04/05 03:18:29;;;;;;;49.10;30.60;;;;;;;-6.60;86.84;99982.58;437182;1251;140062;-65
2023/04/05 03:28:35;;;;;;;45.70;33.60;;;;;;;-6.71;86.91;99983.28;436935;1251;139543;-66
2023/04/05 03:38:43;;;;;;;54.20;35.00;;;;;;;-6.77;87.20;99992.41;436530;1253;140694;-66
2023/04/05 03:48:49;;;;;;;43.60;31.00;;;;;;;-6.84;87.40;99997.61;436339;1251;140266;-65
2023/04/05 03:58:55;;;;;;;51.40;32.90;;;;;;;-6.88;87.49;100006.20;436346;1253;139324;-66
2023/04/05 04:09:01;;;;;;;48.70;31.70;;;;;;;-6.55;89.14;100008.52;436253;1251;140044;-68
2023/04/05 04:19:07;;;;;;;46.40;34.10;;;;;;;-6.09;89.83;100012.10;436154;1253;140688;-66
2023/04/05 04:29:15;;;;;;;43.10;29.90;;;;;;;-5.74;89.90;100016.02;436437;1253;139438;-67
2023/04/05 04:39:25;;;;;;;58.20;33.90;;;;;;;-5.63;89.41;100016.45;436965;1251;139505;-67
2023/04/05 04:49:31;;;;;;;49.50;31.80;;;;;;;-5.49;89.46;100017.60;436698;1251;141086;-68
2023/04/05 04:59:37;;;;;;;41.00;26.90;;;;;;;-4.61;90.45;100016.45;436367;1253;141191;-68
2023/04/05 05:09:41;;;;;;;;;;;;;;;-3.60;89.35;100017.27;436504;1253;140558;-67
2023/04/05 05:19:47;;;;;;;38.10;29.40;;;;;;;-2.91;88.16;100014.15;437225;1253;127012;-67
2023/04/05 05:29:53;;;;;;;50.20;30.30;;;;;;;-1.83;86.58;100014.90;437125;1253;140094;-67
2023/04/05 05:39:59;;;;;;;25.00;17.20;;;;;;;0.15;84.02;100008.98;436364;1253;140472;-67
2023/04/05 05:50:08;;;;;;;12.60;7.60;;;;;;;2.51;75.94;100015.37;436147;1255;139749;-67
2023/04/05 06:00:16;;;;;;;6.80;3.30;;;;;;;2.12;70.15;100017.46;436290;1254;141803;-67
2023/04/05 06:10:23;;;;;;;6.30;3.20;;;;;;;3.60;68.04;100017.11;435882;1254;139448;-71
2023/04/05 06:20:29;;;;;;;4.70;2.80;;;;;;;8.46;64.31;100008.96;436429;1254;139983;-71
2023/04/05 06:30:36;;;;;;;4.80;2.50;;;;;;;12.73;55.44;100001.70;436003;1256;139645;-72
2023/04/05 06:40:41;;;;;;;;;;;;;;;14.71;50.74;100002.40;453201;1251;139205;-72
2023/04/05 06:50:47;;;;;;;6.00;3.60;;;;;;;12.65;48.11;100011.60;440759;1251;125364;-72
2023/04/05 07:00:54;;;;;;;3.80;2.00;;;;;;;18.34;46.11;100001.53;443785;1253;138397;-73
2023/04/05 07:11:00;;;;;;;7.00;5.70;;;;;;;24.50;41.51;99985.58;439283;1253;138947;-73
2023/04/05 07:21:06;;;;;;;2.50;2.30;;;;;;;26.98;36.05;99983.67;439944;1251;138423;-72
2023/04/05 07:31:14;;;;;;;5.90;3.00;;;;;;;28.65;32.26;99979.77;439785;1250;139012;-72
2023/04/05 07:41:22;;;;;;;6.10;2.40;;;;;;;31.17;29.22;99976.36;439702;1253;138499;-74
2023/04/05 07:51:28;;;;;;;4.10;1.80;;;;;;;29.37;26.40;99974.14;439686;1253;138253;-72
2023/04/05 08:01:34;;;;;;;1.90;1.40;;;;;;;26.97;26.46;99972.86;439408;1251;138836;-73
2023/04/05 08:11:40;;;;;;;3.90;2.20;;;;;;;29.72;24.99;99970.22;439949;1253;138922;-76
2023/04/05 08:21:46;;;;;;;2.70;1.70;;;;;;;31.76;23.81;99973.89;439844;1253;139392;-73
2023/04/05 08:31:52;;;;;;;3.10;2.50;;;;;;;30.07;21.93;99974.25;439837;1254;139881;-75
2023/04/05 08:42:03;;;;;;;2.60;1.80;;;;;;;26.67;22.21;99966.14;439818;1254;138318;-72
2023/04/05 08:52:10;;;;;;;7.20;2.00;;;;;;;20.35;22.93;99970.73;439529;1253;138902;-71
2023/04/05 09:02:21;;;;;;;3.50;2.00;;;;;;;14.16;25.11;99982.06;439741;1250;138606;-70
2023/04/05 09:12:28;;;;;;;3.40;2.30;;;;;;;11.07;26.80;99993.22;437843;1251;138425;-70
2023/04/05 09:22:44;;;;;;;3.40;2.30;;;;;;;8.77;28.37;99992.73;437247;1253;140478;-69
2023/04/05 09:32:53;;;;;;;3.20;1.60;;;;;;;7.66;29.82;100001.13;437341;1253;140560;-70
2023/04/05 09:43:00;;;;;;;3.90;2.40;;;;;;;7.80;30.61;100000.14;437321;1254;138507;-71
2023/04/05 09:53:14;;;;;;;4.40;2.40;;;;;;;7.61;30.96;99998.54;437097;1250;138569;-71
2023/04/05 10:03:20;;;;;;;4.30;2.10;;;;;;;7.02;31.63;99997.80;439275;1251;138226;-73
2023/04/05 10:13:27;;;;;;;6.40;3.50;;;;;;;7.54;32.06;99990.31;439470;1253;138709;-69
2023/04/05 10:23:37;;;;;;;3.70;2.50;;;;;;;7.83;32.20;99982.02;437097;1252;140511;-71
2023/04/05 10:33:46;;;;;;;6.30;2.40;;;;;;;7.24;32.62;99989.02;439334;1254;138832;-71
2023/04/05 10:43:56;;;;;;;6.10;2.80;;;;;;;6.65;33.00;99985.42;439608;1251;138318;-70
2023/04/05 10:54:02;;;;;;;3.80;2.50;;;;;;;5.99;33.65;99979.48;439274;1252;198953;-70
2023/04/05 11:04:19;;;;;;;4.00;2.60;;;;;;;5.56;34.01;99969.79;439257;1251;138970;-70
2023/04/05 11:14:34;;;;;;;7.40;2.80;;;;;;;5.36;34.71;99967.39;437612;1253;137970;-68
2023/04/05 11:24:55;;;;;;;3.90;2.90;;;;;;;5.48;34.97;99962.81;437882;1253;139505;-68
2023/04/05 11:35:06;;;;;;;2.90;2.00;;;;;;;5.31;35.25;99953.34;438143;1251;138319;-71
2023/04/05 11:45:12;;;;;;;5.70;3.20;;;;;;;5.55;35.54;99949.69;437997;1253;138166;-71
2023/04/05 11:55:30;;;;;;;5.30;2.20;;;;;;;5.68;35.43;99950.25;437309;1254;137815;-71
2023/04/05 12:05:48;;;;;;;3.90;2.90;;;;;;;5.09;35.79;99948.58;437546;1251;138856;-71
2023/04/05 12:15:57;;;;;;;4.00;2.90;;;;;;;4.88;36.33;99943.24;437325;1254;139372;-71
2023/04/05 12:26:04;;;;;;;3.30;2.40;;;;;;;5.13;36.48;99935.08;439381;1251;138914;-71
2023/04/05 12:36:10;;;;;;;;;;;;;;;5.17;36.55;99933.72;439896;1253;138925;-70
2023/04/05 12:46:19;;;;;;;5.20;3.20;;;;;;;5.20;36.85;99934.48;437486;1251;126258;-72
2023/04/05 12:56:28;;;;;;;4.20;3.30;;;;;;;5.22;36.83;99937.55;437118;1251;138233;-74
2023/04/05 13:06:34;;;;;;;5.40;2.90;;;;;;;5.66;36.82;99935.75;437112;1253;138487;-70
2023/04/05 13:16:40;;;;;;;3.20;2.60;;;;;;;5.83;36.63;99934.40;438101;1251;139376;-71
2023/04/05 13:26:46;;;;;;;4.70;3.60;;;;;;;5.58;37.13;99931.33;439364;1251;139742;-72
2023/04/05 13:36:51;;;;;;;5.40;3.10;;;;;;;5.10;37.44;99927.00;439307;1250;137761;-70
2023/04/05 13:46:57;;;;;;;4.80;3.30;;;;;;;4.90;37.84;99921.80;437197;1251;139621;-71
2023/04/05 13:57:04;;;;;;;7.40;3.80;;;;;;;5.11;37.87;99919.34;437297;1253;137823;-72
2023/04/05 14:07:13;;;;;;;8.50;3.50;;;;;;;5.09;38.17;99919.41;439392;1251;138559;-70
2023/04/05 14:17:19;;;;;;;7.50;4.40;;;;;;;5.12;37.98;99926.77;439734;1251;138361;-70
2023/04/05 14:27:27;;;;;;;6.50;3.00;;;;;;;5.08;37.90;99925.88;439728;1251;138494;-72
2023/04/05 14:37:34;;;;;;;13.00;4.30;;;;;;;5.06;37.96;99925.08;439826;1251;137941;-71
2023/04/05 14:47:40;;;;;;;3.00;2.50;;;;;;;4.87;38.74;99935.29;438658;1253;137934;-70
2023/04/05 14:57:46;;;;;;;3.50;3.00;;;;;;;4.83;38.89;99934.91;437061;1253;138913;-69
2023/04/05 15:07:52;;;;;;;5.80;3.30;;;;;;;4.66;38.89;99944.50;437295;1251;138578;-70
2023/04/05 15:17:58;;;;;;;5.50;3.20;;;;;;;4.26;39.85;99954.27;436902;1251;139570;-70
2023/04/05 15:28:05;;;;;;;5.20;2.80;;;;;;;4.03;40.31;99953.27;436995;1251;139148;-71
2023/04/05 15:38:10;;;;;;;;;;;;;;;3.95;40.55;99953.51;439641;1250;138504;-69
2023/04/05 15:48:16;;;;;;;6.90;3.50;;;;;;;3.76;40.71;99958.42;439560;1250;124318;-71
2023/04/05 15:58:22;;;;;;;4.50;3.70;;;;;;;3.56;41.13;99960.20;439734;1251;137996;-71
2023/04/05 16:08:28;;;;;;;6.10;3.00;;;;;;;3.26;41.88;99959.84;439628;1250;138528;-70
2023/04/05 16:18:33;;;;;;;4.00;2.90;;;;;;;3.02;42.17;99965.85;436567;1253;137902;-70
2023/04/05 16:28:39;;;;;;;4.30;3.10;;;;;;;2.90;42.37;99958.73;436459;1253;138295;-70
2023/04/05 16:38:46;;;;;;;7.70;3.90;;;;;;;2.61;42.40;99968.98;436257;1254;138587;-71
2023/04/05 16:48:52;;;;;;;4.70;3.50;;;;;;;2.21;43.42;99973.21;437261;1250;139064;-70
2023/04/05 16:59:01;;;;;;;4.60;3.60;;;;;;;1.86;44.03;99976.25;436882;1253;137920;-71
2023/04/05 17:09:11;;;;;;;4.80;3.30;;;;;;;1.54;45.09;99981.57;439297;1250;137834;-71
2023/04/05 17:19:17;;;;;;;7.20;4.20;;;;;;;1.23;46.00;99988.91;437568;1251;139034;-70
2023/04/05 17:29:23;;;;;;;7.30;4.00;;;;;;;0.93;46.53;99994.44;436760;1253;138342;-70
2023/04/05 17:39:29;;;;;;;5.70;4.00;;;;;;;0.60;47.11;100007.23;436665;1250;138486;-71
2023/04/05 17:49:36;;;;;;;9.80;5.10;;;;;;;0.30;47.92;100011.48;436631;1250;138315;-69
2023/04/05 17:59:42;;;;;;;9.70;6.90;;;;;;;0.17;48.42;100024.77;436497;1251;139177;-72
2023/04/05 18:09:48;;;;;;;9.30;6.50;;;;;;;-0.10;48.93;100035.98;436292;1253;139496;-66
2023/04/05 18:19:54;;;;;;;9.40;5.70;;;;;;;-0.17;49.42;100045.87;436503;1253;138801;-65
2023/04/05 18:30:00;;;;;;;11.40;7.80;;;;;;;-0.23;49.90;100050.41;436611;1251;138511;-68
2023/04/05 18:40:08;;;;;;;11.80;7.80;;;;;;;-0.40;50.33;100058.36;436387;1254;140014;-67
2023/04/05 18:50:14;;;;;;;18.90;10.00;;;;;;;-0.51;51.09;100071.55;437192;1253;139013;-66
2023/04/05 19:00:21;;;;;;;14.20;10.50;;;;;;;-0.64;51.62;100075.64;436983;1254;138594;-65
2023/04/05 19:10:26;;;;;;;16.70;11.30;;;;;;;-0.91;52.13;100083.28;436945;1254;138633;-66
2023/04/05 19:20:33;;;;;;;17.30;9.80;;;;;;;-1.05;53.12;100087.35;436479;1251;140526;-67
2023/04/05 19:30:40;;;;;;;11.70;8.40;;;;;;;-1.05;53.71;100084.25;436570;1251;139103;-67
2023/04/05 19:40:46;;;;;;;13.50;9.20;;;;;;;-1.09;54.20;100085.33;437352;1251;138973;-68
2023/04/05 19:50:53;;;;;;;17.60;9.70;;;;;;;-1.22;54.86;100084.23;436967;1253;139639;-69
2023/04/05 20:01:02;;;;;;;12.80;8.80;;;;;;;-1.29;55.75;100087.89;436847;1251;139703;-67
2023/04/05 20:11:13;;;;;;;12.30;9.00;;;;;;;-1.33;56.20;100077.27;437317;1251;138920;-67
2023/04/05 20:21:19;;;;;;;10.70;7.40;;;;;;;-1.52;56.68;100076.88;438070;1251;138399;-67
2023/04/05 20:31:28;;;;;;;11.50;7.80;;;;;;;-1.64;56.88;100064.23;437431;1253;138504;-67
2023/04/05 20:41:34;;;;;;;16.60;8.60;;;;;;;-1.69;57.55;100060.16;436939;1254;138485;-67
2023/04/05 20:51:41;;;;;;;15.50;7.90;;;;;;;-1.74;57.54;100056.58;436262;1254;140845;-68
2023/04/05 21:01:47;;;;;;;12.40;9.20;;;;;;;-1.88;58.04;100054.95;436402;1253;139041;-67
2023/04/05 21:11:54;;;;;;;18.20;9.30;;;;;;;-1.97;58.04;100056.87;436440;1254;138325;-69
2023/04/05 21:21:59;;;;;;;12.60;8.30;;;;;;;-2.12;58.64;100059.35;436627;1254;140214;-68
2023/04/05 21:32:06;;;;;;;14.30;8.40;;;;;;;-2.23;58.98;100060.08;436425;1254;139207;-68
2023/04/05 21:42:11;;;;;;;14.20;9.70;;;;;;;-2.28;59.45;100058.20;436784;1254;139568;-67
2023/04/05 21:52:17;;;;;;;12.90;7.20;;;;;;;-2.32;59.70;100055.13;436972;1254;139524;-67
2023/04/05 22:02:23;;;;;;;11.90;6.80;;;;;;;-2.21;60.24;100054.92;437140;1254;138932;-68
2023/04/05 22:12:27;;;;;;;;;;;;;;;-2.26;60.48;100047.73;437769;1255;139775;-69
2023/04/05 22:22:33;;;;;;;11.30;7.10;;;;;;;-2.26;60.97;100053.92;437098;1253;125349;-68
2023/04/05 22:32:39;;;;;;;12.00;8.00;;;;;;;-2.31;61.09;100056.67;437003;1254;138734;-68
2023/04/05 22:42:45;;;;;;;;;;;;;;;-2.38;61.64;100062.36;436857;1253;139069;-69
2023/04/05 22:52:51;;;;;;;15.90;9.50;;;;;;;-2.38;62.20;100067.84;436710;1251;151494;-69
2023/04/05 23:02:57;;;;;;;13.30;9.60;;;;;;;-2.60;62.25;100068.59;437043;1253;139037;-68
2023/04/05 23:13:02;;;;;;;16.30;10.10;;;;;;;-2.80;62.72;100064.52;436256;1254;138891;-68
2023/04/05 23:23:08;;;;;;;15.50;12.60;;;;;;;-3.00;63.02;100066.09;436315;1254;139300;-68
2023/04/05 23:33:15;;;;;;;17.40;11.80;;;;;;;-3.03;63.55;100056.15;436699;1251;140035;-67
2023/04/05 23:43:19;;;;;;;;;;;;;;;-3.12;63.70;100050.85;436606;1253;144858;-68
2023/04/05 23:53:26;;;;;;;39.70;25.60;;;;;;;-3.31;64.24;100045.04;436419;1251;126009;-68
